createdAt,value
2019-01-21T00:00:33.286Z,-2.40
2019-01-21T00:03:03.071Z,-2.40
2019-01-21T00:05:56.534Z,-2.40
2019-01-21T00:08:26.609Z,-2.30
2019-01-21T00:10:57.422Z,-2.30
2019-01-21T00:13:27.488Z,-2.30
2019-01-21T00:16:00.814Z,-2.30
2019-01-21T00:18:32.636Z,-2.40
2019-01-21T00:21:02.369Z,-2.40
2019-01-21T00:23:32.018Z,-2.60
2019-01-21T00:26:03.171Z,-2.50
2019-01-21T00:28:33.853Z,-2.60
2019-01-21T00:31:05.493Z,-2.70
2019-01-21T00:33:47.286Z,-2.70
2019-01-21T00:36:21.954Z,-2.60
2019-01-21T00:38:58.900Z,-2.60
2019-01-21T00:41:32.018Z,-2.50
2019-01-21T00:44:02.938Z,-2.60
2019-01-21T00:46:35.216Z,-2.60
2019-01-21T00:49:06.976Z,-2.70
2019-01-21T00:51:37.162Z,-2.80
2019-01-21T00:54:07.692Z,-2.70
2019-01-21T00:56:37.636Z,-2.80
2019-01-21T00:59:22.469Z,-2.90
2019-01-21T01:01:56.592Z,-2.90
2019-01-21T01:04:35.180Z,-2.90
2019-01-21T01:07:06.782Z,-2.80
2019-01-21T01:09:37.656Z,-2.80
2019-01-21T01:12:09.967Z,-2.80
2019-01-21T01:14:44.491Z,-2.80
2019-01-21T01:17:18.044Z,-2.80
2019-01-21T01:19:52.760Z,-2.80
2019-01-21T01:22:30.434Z,-2.80
2019-01-21T01:25:04.256Z,-2.80
2019-01-21T01:27:37.076Z,-2.80
2019-01-21T01:30:12.635Z,-2.70
2019-01-21T01:32:49.584Z,-2.70
2019-01-21T01:35:29.186Z,-2.80
2019-01-21T01:46:28.077Z,-2.80
2019-01-21T01:48:57.370Z,-2.90
2019-01-21T01:51:26.292Z,-2.80
2019-01-21T01:53:55.476Z,-2.90
2019-01-21T01:56:27.433Z,-3.00
2019-01-21T01:58:56.392Z,-3.00
2019-01-21T02:01:25.704Z,-3.00
2019-01-21T02:03:54.684Z,-3.00
2019-01-21T02:06:33.751Z,-3.00
2019-01-21T02:09:12.510Z,-3.00
2019-01-21T02:11:42.578Z,-3.00
2019-01-21T02:14:12.817Z,-2.90
2019-01-21T02:16:41.739Z,-3.00
2019-01-21T02:19:12.629Z,-3.00
2019-01-21T02:21:42.267Z,-3.00
2019-01-21T02:24:13.853Z,-2.80
2019-01-21T02:26:54.711Z,-2.80
2019-01-21T02:29:42.105Z,-2.70
2019-01-21T02:32:23.851Z,-2.80
2019-01-21T02:35:23.357Z,-2.80
2019-01-21T02:38:15.636Z,-2.80
2019-01-21T02:40:58.520Z,-2.90
2019-01-21T02:44:16.195Z,-3.00
2019-01-21T02:47:37.343Z,-3.10
2019-01-21T02:50:29.813Z,-3.20
2019-01-21T02:53:35.915Z,-3.20
2019-01-21T02:56:41.917Z,-3.20
2019-01-21T02:59:28.104Z,-3.20
2019-01-21T03:02:45.773Z,-3.20
2019-01-21T03:05:43.382Z,-3.10
2019-01-21T03:08:41.699Z,-3.20
2019-01-21T03:11:54.835Z,-3.20
2019-01-21T03:14:47.255Z,-3.20
2019-01-21T03:17:37.702Z,-3.10
2019-01-21T03:20:44.892Z,-3.00
2019-01-21T03:23:51.819Z,-2.90
2019-01-21T03:27:00.956Z,-2.90
2019-01-21T03:30:08.013Z,-3.00
2019-01-21T03:32:49.169Z,-3.10
2019-01-21T03:35:59.622Z,-3.20
2019-01-21T04:13:17.152Z,-3.50
2019-01-21T04:16:18.793Z,-3.40
2019-01-21T04:19:02.056Z,-3.30
2019-01-21T04:21:48.515Z,-3.40
2019-01-21T04:25:04.146Z,-3.30
2019-01-21T04:28:06.236Z,-3.30
2019-01-21T04:58:54.131Z,-3.30
2019-01-21T05:01:50.256Z,-3.20
2019-01-21T05:04:33.084Z,-3.20
2019-01-21T05:07:41.092Z,-3.20
2019-01-21T05:10:34.504Z,-3.20
2019-01-21T05:14:02.400Z,-3.10
2019-01-21T05:16:55.432Z,-3.10
2019-01-21T05:20:09.397Z,-3.20
2019-01-21T05:23:31.706Z,-3.30
2019-01-21T05:26:26.153Z,-3.30
2019-01-21T05:29:22.075Z,-3.40
2019-01-21T05:32:21.956Z,-3.30
2019-01-21T05:35:14.043Z,-3.20
2019-01-21T05:38:07.625Z,-3.30
2019-01-21T05:41:23.683Z,-3.30
2019-01-21T05:44:27.618Z,-3.30
2019-01-21T05:47:11.167Z,-3.40
2019-01-21T05:50:35.460Z,-3.40
2019-01-21T05:53:50.127Z,-3.40
2019-01-21T06:00:33.464Z,-3.40
2019-01-21T06:03:46.482Z,-3.40
2019-01-21T06:06:51.596Z,-3.30
2019-01-21T06:09:52.949Z,-3.40
2019-01-21T06:12:57.433Z,-3.30
2019-01-21T06:16:03.966Z,-3.40
2019-01-21T07:01:58.553Z,-3.40
2019-01-21T07:05:06.939Z,-3.40
2019-01-21T07:08:21.429Z,-3.40
2019-01-21T07:11:27.529Z,-3.40
2019-01-21T07:14:39.729Z,-3.50
2019-01-21T07:17:36.499Z,-3.50
2019-01-21T07:20:33.403Z,-3.60
2019-01-21T07:24:04.775Z,-3.60
2019-01-21T07:27:09.675Z,-3.60
2019-01-21T07:30:28.891Z,-3.70
2019-01-21T07:33:38.668Z,-3.60
2019-01-21T07:36:43.253Z,-3.60
2019-01-21T07:51:06.515Z,-3.70
2019-01-21T08:01:52.549Z,-3.30
2019-01-21T08:05:14.997Z,-3.50
2019-01-21T08:07:51.964Z,-3.60
2019-01-21T08:11:20.158Z,-3.50
2019-01-21T08:18:10.280Z,-3.50
2019-01-21T08:21:15.920Z,-3.50
2019-01-21T08:24:38.937Z,-3.50
2019-01-21T08:28:14.796Z,-3.50
2019-01-21T08:31:12.989Z,-3.50
2019-01-21T08:34:21.733Z,-3.60
2019-01-21T08:37:40.561Z,-3.50
2019-01-21T08:40:37.587Z,-3.40
2019-01-21T08:43:58.593Z,-3.50
2019-01-21T08:50:51.353Z,-3.50
2019-01-21T08:54:24.201Z,-3.50
2019-01-21T08:57:21.502Z,-3.50
2019-01-21T09:00:14.709Z,-3.50
2019-01-21T09:03:09.572Z,-3.40
2019-01-21T09:06:13.929Z,-3.30
2019-01-21T09:09:28.874Z,-3.30
2019-01-21T09:12:31.395Z,-3.30
2019-01-21T09:15:29.707Z,-3.30
2019-01-21T09:18:40.430Z,-3.20
2019-01-21T09:21:35.337Z,-3.20
2019-01-21T09:25:00.497Z,-3.30
2019-01-21T09:28:07.165Z,-3.30
2019-01-21T09:31:24.828Z,-3.20
2019-01-21T09:34:41.800Z,-3.20
2019-01-21T09:37:45.228Z,-3.30
2019-01-21T09:40:41.962Z,-3.30
2019-01-21T09:43:39.988Z,-3.30
2019-01-21T09:46:48.521Z,-3.30
2019-01-21T09:49:16.009Z,-3.30
2019-01-21T09:52:15.136Z,-3.30
2019-01-21T09:54:44.068Z,-3.30
2019-01-21T09:57:26.264Z,-3.10
2019-01-21T10:00:01.509Z,-3.10
2019-01-21T10:02:47.270Z,-3.10
2019-01-21T10:05:28.089Z,-3.10
2019-01-21T10:12:13.970Z,-3.00
2019-01-21T10:15:35.228Z,-2.80
2019-01-21T10:19:00.212Z,-2.80
2019-01-21T10:22:26.851Z,-2.80
2019-01-21T10:28:54.647Z,-2.80
2019-01-21T10:32:03.232Z,-2.80
2019-01-21T10:38:54.424Z,-2.90
2019-01-21T10:41:38.088Z,-2.90
2019-01-21T10:45:05.593Z,-2.90
2019-01-21T10:48:25.745Z,-2.90
2019-01-21T10:51:18.718Z,-2.70
2019-01-21T10:54:13.807Z,-2.80
2019-01-21T10:57:31.512Z,-2.80
2019-01-21T11:01:02.420Z,-2.80
2019-01-21T11:04:34.289Z,-2.80
2019-01-21T11:07:44.447Z,-2.80
2019-01-21T11:10:43.029Z,-2.90
2019-01-21T11:14:06.761Z,-2.80
2019-01-21T11:17:02.964Z,-2.70
2019-01-21T11:20:28.425Z,-2.60
2019-01-21T11:23:26.939Z,-2.50
2019-01-21T11:26:54.137Z,-2.50
2019-01-21T11:29:44.903Z,-2.60
2019-01-21T11:32:57.477Z,-2.50
2019-01-21T11:36:10.448Z,-2.50
2019-01-21T11:39:24.288Z,-2.60
2019-01-21T11:42:30.855Z,-2.50
2019-01-21T11:45:41.027Z,-2.30
2019-01-21T11:48:43.123Z,-2.40
2019-01-21T11:51:46.087Z,-2.20
2019-01-21T11:55:23.667Z,-2.20
2019-01-21T11:58:40.366Z,-2.20
2019-01-21T12:10:02.194Z,-2.20
2019-01-21T12:12:49.933Z,-2.30
2019-01-21T12:15:41.666Z,-2.30
2019-01-21T12:18:40.414Z,-2.00
2019-01-21T12:21:58.848Z,-2.00
2019-01-21T12:24:45.667Z,-2.10
2019-01-21T12:28:06.519Z,-2.30
2019-01-21T12:30:55.597Z,-1.90
2019-01-21T12:34:04.456Z,-1.80
2019-01-21T12:37:22.991Z,-1.50
2019-01-21T12:40:23.538Z,-1.50
2019-01-21T12:43:25.688Z,-1.40
2019-01-21T12:46:39.488Z,-1.40
2019-01-21T12:49:46.053Z,-1.60
2019-01-21T12:52:24.054Z,-1.70
2019-01-21T12:55:00.692Z,-1.50
2019-01-21T12:58:31.537Z,-1.20
2019-01-21T13:02:01.847Z,-1.00
2019-01-21T13:08:35.918Z,-0.60
2019-01-21T13:12:03.457Z,-0.50
2019-01-21T13:15:30.864Z,-0.40
2019-01-21T13:18:48.996Z,-0.70
2019-01-21T13:21:57.379Z,-0.40
2019-01-21T13:25:30.020Z,-0.10
2019-01-21T13:29:18.723Z,-0.30
2019-01-21T13:32:12.612Z,-0.80
2019-01-21T13:35:14.273Z,-0.80
2019-01-21T13:38:11.596Z,-0.60
2019-01-21T13:41:42.581Z,-0.60
2019-01-21T13:48:38.538Z,-0.70
2019-01-21T13:51:49.323Z,-0.50
2019-01-21T13:55:12.452Z,-0.20
2019-01-21T13:58:27.678Z,-0.40
2019-01-21T14:01:09.986Z,-0.50
2019-01-21T14:04:34.954Z,-0.60
2019-01-21T14:07:48.086Z,-0.60
2019-01-21T14:11:15.855Z,-0.80
2019-01-21T14:14:01.302Z,-0.60
2019-01-21T14:17:11.622Z,-0.60
2019-01-21T14:20:53.956Z,-0.50
2019-01-21T14:24:17.881Z,-0.80
2019-01-21T14:27:21.807Z,-0.90
2019-01-21T14:30:00.466Z,-1.10
2019-01-21T14:33:13.323Z,-1.20
2019-01-21T14:36:09.075Z,-1.40
2019-01-21T14:39:15.269Z,-1.50
2019-01-21T14:42:44.713Z,-1.60
2019-01-21T14:45:56.583Z,-1.60
2019-01-21T14:51:41.474Z,-1.70
2019-01-21T14:54:33.802Z,-1.70
2019-01-21T14:57:52.802Z,-1.70
2019-01-21T15:01:10.252Z,-1.60
2019-01-21T15:03:54.338Z,-1.60
2019-01-21T15:07:07.500Z,-1.70
2019-01-21T15:15:35.622Z,-1.80
2019-01-21T15:18:22.240Z,-1.80
2019-01-21T15:21:49.828Z,-1.80
2019-01-21T15:25:00.843Z,-1.80
2019-01-21T15:27:49.053Z,-2.00
2019-01-21T15:31:05.096Z,-2.10
2019-01-21T15:37:48.244Z,-2.20
2019-01-21T15:40:41.443Z,-2.30
2019-01-21T15:43:29.340Z,-2.30
2019-01-21T15:46:22.540Z,-2.40
2019-01-21T15:49:28.110Z,-2.40
2019-01-21T15:52:32.935Z,-2.50
2019-01-21T15:59:27.615Z,-2.50
2019-01-21T16:02:04.693Z,-2.60
2019-01-21T16:04:58.472Z,-2.60
2019-01-21T16:07:43.175Z,-2.60
2019-01-21T16:10:34.749Z,-2.70
2019-01-21T16:13:38.711Z,-2.70
2019-01-21T16:16:34.989Z,-2.70
2019-01-21T16:19:15.998Z,-2.70
2019-01-21T16:22:03.834Z,-2.80
2019-01-21T16:24:56.523Z,-2.80
2019-01-21T16:28:06.768Z,-2.80
2019-01-21T16:31:02.210Z,-2.80
2019-01-21T16:33:49.206Z,-2.90
2019-01-21T16:36:36.920Z,-2.90
2019-01-21T16:39:37.076Z,-2.90
2019-01-21T16:42:14.978Z,-2.90
2019-01-21T16:44:45.805Z,-2.80
2019-01-21T16:47:15.789Z,-2.80
2019-01-21T16:50:10.515Z,-2.90
2019-01-21T16:53:21.232Z,-2.90
2019-01-21T16:56:06.377Z,-2.90
2019-01-21T16:58:41.496Z,-3.00
2019-01-21T17:01:22.477Z,-3.00
2019-01-21T17:03:56.869Z,-3.00
2019-01-21T17:07:13.584Z,-3.00
2019-01-21T17:09:43.141Z,-3.00
2019-01-21T17:12:12.511Z,-3.00
2019-01-21T17:14:41.941Z,-3.00
2019-01-21T17:19:40.282Z,-3.10
2019-01-21T17:22:09.573Z,-3.10
2019-01-21T17:24:38.899Z,-3.10
2019-01-21T17:27:08.882Z,-3.10
2019-01-21T17:34:54.962Z,-3.30
2019-01-21T17:37:28.219Z,-3.40
2019-01-21T17:39:57.198Z,-3.50
2019-01-21T17:42:26.082Z,-3.60
2019-01-21T17:44:55.004Z,-3.60
2019-01-21T17:47:24.130Z,-3.60
2019-01-21T17:49:53.148Z,-3.60
2019-01-21T17:52:22.231Z,-3.60
2019-01-21T17:54:51.200Z,-3.60
2019-01-21T17:57:20.168Z,-3.60
2019-01-21T17:59:49.163Z,-3.60
2019-01-21T18:02:18.128Z,-3.60
2019-01-21T18:04:47.068Z,-3.70
2019-01-21T18:07:15.943Z,-3.70
2019-01-21T18:09:45.031Z,-3.80
2019-01-21T18:12:13.933Z,-3.80
2019-01-21T18:14:42.811Z,-3.80
2019-01-21T18:17:11.679Z,-3.80
2019-01-21T18:19:40.769Z,-3.80
2019-01-21T18:22:09.931Z,-3.80
2019-01-21T18:24:38.919Z,-3.80
2019-01-21T18:27:07.775Z,-3.80
2019-01-21T18:29:36.667Z,-3.80
2019-01-21T18:32:05.681Z,-3.80
2019-01-21T18:34:34.551Z,-3.80
2019-01-21T18:37:03.771Z,-3.90
2019-01-21T18:39:32.745Z,-3.80
2019-01-21T18:42:02.738Z,-3.80
2019-01-21T18:44:33.737Z,-3.80
2019-01-21T18:47:07.585Z,-3.80
2019-01-21T18:52:43.397Z,-3.80
2019-01-21T18:55:17.341Z,-3.70
2019-01-21T18:58:18.001Z,-3.80
2019-01-21T19:00:47.061Z,-3.70
2019-01-21T19:03:24.332Z,-3.70
2019-01-21T19:05:55.102Z,-3.70
2019-01-21T19:11:09.469Z,-3.80
2019-01-21T19:13:38.455Z,-3.80
2019-01-21T19:16:07.391Z,-3.90
2019-01-21T19:19:23.636Z,-3.90
2019-01-21T19:22:25.389Z,-3.90
2019-01-21T19:28:41.204Z,-3.90
2019-01-21T19:31:12.773Z,-3.90
2019-01-21T19:33:42.725Z,-3.90
2019-01-21T19:36:11.939Z,-3.90
2019-01-21T19:38:41.840Z,-3.90
2019-01-21T19:41:12.002Z,-3.90
2019-01-21T19:43:44.153Z,-3.90
2019-01-21T19:46:14.428Z,-3.90
2019-01-21T19:48:46.873Z,-3.80
2019-01-21T20:02:44.895Z,-3.70
2019-01-21T20:37:46.942Z,-3.60
2019-01-21T20:43:13.012Z,-3.60
2019-01-21T20:58:48.341Z,-3.80
2019-01-21T21:05:47.946Z,-3.80
2019-01-21T22:02:32.176Z,-4.00
2019-01-21T23:09:19.084Z,-4.50
2019-01-21T23:11:48.235Z,-4.60
2019-01-21T23:14:17.219Z,-4.50
2019-01-21T23:16:46.175Z,-4.60
2019-01-21T23:19:15.187Z,-4.60
2019-01-21T23:21:44.267Z,-4.70
2019-01-21T23:24:16.726Z,-4.60
2019-01-21T23:26:45.787Z,-4.60
2019-01-21T23:29:14.760Z,-4.70
2019-01-21T23:31:43.725Z,-4.70
2019-01-21T23:34:12.663Z,-4.70
2019-01-21T23:36:41.732Z,-4.70
2019-01-21T23:39:10.701Z,-4.70
